KGAG

Gage Airport

Gage, Oklahoma, USA
METAR KGAG 181553Z AUTO 25004KT 8SM CLR 04/01 A3012 RMK AO2 SLP214 T00440006
Observed Flight Rules
Dec-18 @ 15:53 UTC (53 minutes ago) Visual Flight Rules
Wind Visibility Clouds
250° at 4 knots 8 miles
  • Clear skies
Temperatures Readings
Current 4°C / 39°F
Dewpoint 1°C / 34°F
Humidity 81%
Altimeter 30.12" Hg
Pressure 1021.4 hPa
Elevation 668
METAR KGAG 181553Z AUTO 25004KT 8SM CLR 04/01 A3012 RMK AO2 SLP214 T00440006
Observed Flight Rules
Dec-18 @ 15:53 UTC
(53 minutes ago)
VFR
Wind Visibility
250° at 4 knots 8 miles
Clouds
  • Clear skies
Temperature Dewpoint
4°C / 39°F 1°C / 34°F
Humidity Altimeter Pressure
81% 30.12" Hg 1021.4 hPa